Time;durP1;ratioP1;P1;durP2;ratioP2;P2;SDS_P1;SDS_P2;PMS_P1;PMS_P2;Temp;Humidity;BMP_temperature;BMP_pressure;BME280_temperature;BME280_humidity;BME280_pressure;Samples;Min_cycle;Max_cycle;Signal;HPM_P1;HPM_P2
2023/08/24 00:00:18;;;;;;;4.43;2.90;;;18.00;99.90;;;;;;5016986;28;20214;-66
2023/08/24 00:02:44;;;;;;;8.45;2.90;;;18.00;99.90;;;;;;5026743;28;23473;-65
2023/08/24 00:05:11;;;;;;;3.00;2.75;;;17.90;99.90;;;;;;5017385;28;20232;-65
2023/08/24 00:07:38;;;;;;;5.70;3.20;;;17.90;99.90;;;;;;5031682;28;20697;-65
2023/08/24 00:10:06;;;;;;;4.10;3.28;;;17.90;99.90;;;;;;5023773;28;20574;-65
2023/08/24 00:12:35;;;;;;;4.03;3.17;;;17.90;99.90;;;;;;5029126;28;20201;-65
2023/08/24 00:15:04;;;;;;;8.32;3.47;;;17.90;99.90;;;;;;4983671;28;20240;-65
2023/08/24 00:17:31;;;;;;;7.00;4.30;;;18.00;99.90;;;;;;5028787;28;20194;-65
2023/08/24 00:19:57;;;;;;;7.60;3.28;;;17.90;99.90;;;;;;5022784;28;20788;-65
2023/08/24 00:22:24;;;;;;;3.72;3.08;;;17.90;99.90;;;;;;5011936;28;20263;-65
2023/08/24 00:24:51;;;;;;;5.30;3.70;;;17.80;99.90;;;;;;5011029;28;20201;-65
2023/08/24 00:27:18;;;;;;;4.18;2.88;;;17.80;99.90;;;;;;5020210;28;20985;-65
2023/08/24 00:29:45;;;;;;;3.88;3.20;;;17.80;99.90;;;;;;4986787;28;20567;-65
2023/08/24 00:32:13;;;;;;;5.53;3.40;;;17.70;99.90;;;;;;5008467;28;20216;-65
2023/08/24 00:34:40;;;;;;;3.50;3.17;;;17.70;99.90;;;;;;5021442;28;20617;-65
2023/08/24 00:37:06;;;;;;;4.38;3.10;;;17.70;99.90;;;;;;5011610;28;20905;-65
2023/08/24 00:39:33;;;;;;;6.43;4.07;;;17.70;99.90;;;;;;5013282;28;20313;-65
2023/08/24 00:42:00;;;;;;;7.28;3.67;;;17.70;99.90;;;;;;5015974;28;20205;-65
2023/08/24 00:44:27;;;;;;;5.57;3.40;;;17.70;99.90;;;;;;5015278;28;20748;-65
2023/08/24 00:46:54;;;;;;;5.22;3.20;;;17.60;99.90;;;;;;4987963;28;20206;-65
2023/08/24 00:49:23;;;;;;;4.85;3.20;;;17.50;99.90;;;;;;5022868;28;20205;-65
2023/08/24 00:51:49;;;;;;;10.10;3.53;;;17.60;99.90;;;;;;5024359;28;20201;-65
2023/08/24 00:54:17;;;;;;;7.47;3.17;;;17.40;99.90;;;;;;5014741;28;21417;-65
2023/08/24 00:56:44;;;;;;;5.55;2.92;;;17.40;99.90;;;;;;5011462;28;20210;-65
2023/08/24 00:59:11;;;;;;;3.33;3.03;;;17.40;99.90;;;;;;5026692;28;20186;-65
2023/08/24 01:01:40;;;;;;;5.93;3.30;;;17.40;99.90;;;;;;4993929;28;20272;-65
2023/08/24 01:04:08;;;;;;;4.38;3.15;;;17.30;99.90;;;;;;5022701;28;20237;-65
2023/08/24 01:06:36;;;;;;;5.10;3.58;;;17.20;99.90;;;;;;5028037;28;20198;-65
2023/08/24 01:09:03;;;;;;;4.45;3.88;;;17.10;99.90;;;;;;5017923;28;20208;-65
2023/08/24 01:11:43;;;;;;;7.25;3.63;;;17.10;99.90;;;;;;5015238;28;20213;-65
2023/08/24 01:16:47;;;;;;;3.83;3.20;;;17.20;99.90;;;;;;4990620;28;20229;-65
2023/08/24 01:19:26;;;;;;;4.50;2.50;;;17.40;99.90;;;;;;5023802;28;20204;-65
2023/08/24 01:21:56;;;;;;;6.13;2.85;;;17.00;99.90;;;;;;5029748;28;20201;-65
2023/08/24 01:24:33;;;;;;;5.25;2.70;;;16.90;99.90;;;;;;5024388;28;20868;-65
2023/08/24 01:27:02;;;;;;;5.85;2.60;;;16.90;99.90;;;;;;5015485;28;20205;-65
2023/08/24 01:29:29;;;;;;;6.60;3.08;;;16.90;99.90;;;;;;5022871;28;20211;-65
2023/08/24 01:31:57;;;;;;;3.33;2.47;;;16.80;99.90;;;;;;5009343;28;20581;-65
2023/08/24 01:34:23;;;;;;;7.03;3.10;;;16.80;99.90;;;;;;5001893;28;21432;-65
2023/08/24 01:36:51;;;;;;;3.70;3.00;;;16.80;99.90;;;;;;5020866;28;20281;-65
2023/08/24 01:39:29;;;;;;;4.50;2.60;;;16.80;99.90;;;;;;5012059;28;20233;-65
2023/08/24 01:42:00;;;;;;;5.00;3.67;;;16.70;99.90;;;;;;5012671;28;20201;-65
2023/08/24 01:44:30;;;;;;;3.30;2.63;;;16.70;99.90;;;;;;5017705;28;20205;-65
2023/08/24 01:46:59;;;;;;;3.30;2.95;;;16.60;99.90;;;;;;5021385;28;20201;-65
2023/08/24 01:49:28;;;;;;;5.95;3.33;;;16.70;99.90;;;;;;4984662;28;20553;-65
2023/08/24 01:51:55;;;;;;;7.93;3.60;;;16.60;99.90;;;;;;5022445;28;20580;-65
2023/08/24 01:54:22;;;;;;;7.57;3.50;;;16.60;99.90;;;;;;5022256;28;21762;-65
2023/08/24 01:56:49;;;;;;;3.80;3.50;;;16.50;99.90;;;;;;5012458;28;20197;-65
2023/08/24 01:59:16;;;;;;;4.65;3.83;;;16.60;99.90;;;;;;5021848;28;20202;-65
2023/08/24 02:01:44;;;;;;;7.43;3.92;;;16.60;99.90;;;;;;5018533;28;20197;-65
2023/08/24 02:04:11;;;;;;;7.85;4.38;;;16.50;99.90;;;;;;4988464;28;20243;-65
2023/08/24 02:06:37;;;;;;;5.10;3.75;;;16.50;99.90;;;;;;5015432;28;20746;-65
2023/08/24 02:09:04;;;;;;;4.82;4.28;;;16.90;99.90;;;;;;5022177;28;21070;-65
2023/08/24 02:11:31;;;;;;;7.57;3.78;;;;;;;;;;5013195;28;20543;-65
2023/08/24 02:13:58;;;;;;;4.78;3.05;;;17.20;99.90;;;;;;5024399;28;20228;-64
2023/08/24 02:16:25;;;;;;;8.40;3.20;;;16.40;99.90;;;;;;5022645;28;20190;-65
2023/08/24 02:18:53;;;;;;;8.80;3.17;;;16.40;99.90;;;;;;4989154;28;20212;-65
2023/08/24 02:21:20;;;;;;;3.63;2.60;;;16.30;99.90;;;;;;5025403;28;20208;-65
2023/08/24 02:23:46;;;;;;;4.30;2.03;;;16.50;99.90;;;;;;5025981;28;20205;-65
2023/08/24 02:26:13;;;;;;;2.90;2.38;;;16.30;99.90;;;;;;5019035;28;20212;-65
2023/08/24 02:28:40;;;;;;;2.40;1.75;;;16.30;99.90;;;;;;5023862;28;20567;-65
2023/08/24 02:31:07;;;;;;;1.73;1.63;;;16.20;99.90;;;;;;5027628;28;20205;-65
2023/08/24 02:33:35;;;;;;;1.90;1.70;;;16.20;99.90;;;;;;4986301;28;20205;-65
2023/08/24 02:36:04;;;;;;;2.30;2.10;;;16.20;99.90;;;;;;5025151;28;20229;-65
2023/08/24 02:38:30;;;;;;;2.65;2.45;;;16.50;99.90;;;;;;5022838;28;20336;-65
2023/08/24 02:41:04;;;;;;;4.97;2.05;;;16.20;99.90;;;;;;5027449;28;23244;-65
2023/08/24 02:43:31;;;;;;;2.50;2.30;;;16.20;99.90;;;;;;5015479;28;20236;-65
2023/08/24 02:46:03;;;;;;;4.85;1.80;;;16.20;99.90;;;;;;5014082;28;20202;-65
2023/08/24 02:48:30;;;;;;;2.97;2.03;;;16.20;99.90;;;;;;4991881;28;20193;-65
2023/08/24 02:50:58;;;;;;;3.38;2.85;;;16.20;99.90;;;;;;5012197;28;20197;-65
2023/08/24 02:53:27;;;;;;;84.35;27.83;;;16.20;99.90;;;;;;5029025;28;20205;-65
2023/08/24 02:55:53;;;;;;;67.75;23.08;;;16.20;99.90;;;;;;5014890;28;20233;-65
2023/08/24 02:58:20;;;;;;;41.15;16.65;;;16.20;99.90;;;;;;5018574;28;20201;-65
2023/08/24 03:00:48;;;;;;;25.75;9.95;;;16.30;99.90;;;;;;5022213;28;20209;-65
2023/08/24 03:03:15;;;;;;;7.32;4.07;;;16.30;99.90;;;;;;5025423;28;20228;-65
2023/08/24 03:05:42;;;;;;;5.90;3.38;;;16.20;99.90;;;;;;4984567;28;20596;-65
2023/08/24 03:08:09;;;;;;;3.92;3.20;;;16.20;99.90;;;;;;5015607;28;20660;-65
2023/08/24 03:10:37;;;;;;;6.22;2.05;;;16.20;99.90;;;;;;5025001;28;20898;-65
2023/08/24 03:13:04;;;;;;;3.33;3.03;;;16.20;99.90;;;;;;5019424;28;20232;-65
2023/08/24 03:15:32;;;;;;;4.63;3.03;;;16.30;99.90;;;;;;5025560;28;20224;-65
2023/08/24 03:17:59;;;;;;;3.78;2.53;;;16.20;99.90;;;;;;5019620;28;20213;-65
2023/08/24 03:20:25;;;;;;;3.75;2.53;;;15.20;99.90;;;;;;4979813;28;20225;-66
2023/08/24 03:22:52;;;;;;;2.92;2.58;;;16.10;99.90;;;;;;4997192;28;20772;-65
2023/08/24 03:25:19;;;;;;;5.40;2.58;;;16.10;99.90;;;;;;5011125;28;20980;-65
2023/08/24 03:27:47;;;;;;;3.42;2.42;;;17.30;99.90;;;;;;5010733;28;20705;-65
2023/08/24 03:30:15;;;;;;;3.50;3.20;;;16.10;99.90;;;;;;5023415;28;20229;-65
2023/08/24 03:32:42;;;;;;;3.20;2.90;;;16.10;99.90;;;;;;5021541;28;20194;-65
2023/08/24 03:35:09;;;;;;;4.15;2.35;;;16.10;99.90;;;;;;5007351;28;20245;-65
2023/08/24 03:37:35;;;;;;;2.35;2.15;;;16.00;99.90;;;;;;4973699;28;20739;-65
2023/08/24 03:40:03;;;;;;;3.17;2.22;;;15.80;99.90;;;;;;5024692;28;20201;-65
2023/08/24 03:42:31;;;;;;;3.60;2.25;;;15.90;99.90;;;;;;5018847;28;20206;-65
2023/08/24 03:45:00;;;;;;;2.72;2.53;;;15.90;99.90;;;;;;5015124;28;20252;-65
2023/08/24 03:47:27;;;;;;;4.00;2.60;;;15.90;99.90;;;;;;5024537;28;20200;-65
2023/08/24 03:49:54;;;;;;;7.47;2.55;;;15.90;99.90;;;;;;5012418;28;20221;-65
2023/08/24 03:52:21;;;;;;;4.70;2.65;;;15.90;99.90;;;;;;5003203;28;20702;-66
2023/08/24 03:54:48;;;;;;;5.50;2.90;;;15.90;99.90;;;;;;5009205;28;20697;-64
2023/08/24 03:57:16;;;;;;;5.20;2.97;;;15.90;99.90;;;;;;5023846;28;20197;-65
2023/08/24 03:59:43;;;;;;;3.20;2.90;;;16.00;99.90;;;;;;5005933;28;20910;-65
2023/08/24 04:02:11;;;;;;;3.80;2.70;;;16.00;99.90;;;;;;5022912;28;20213;-65
2023/08/24 04:04:38;;;;;;;6.35;3.53;;;16.20;99.90;;;;;;5023447;28;20625;-65
2023/08/24 04:07:05;;;;;;;4.40;3.15;;;16.00;99.90;;;;;;5025415;28;20547;-65
2023/08/24 04:09:31;;;;;;;5.20;3.90;;;15.90;99.90;;;;;;4990034;28;20216;-66
2023/08/24 04:11:58;;;;;;;4.70;3.20;;;16.00;99.90;;;;;;5025853;28;20206;-65
2023/08/24 04:14:25;;;;;;;6.47;3.70;;;16.00;99.90;;;;;;5011862;28;20309;-65
2023/08/24 04:16:52;;;;;;;4.90;2.83;;;16.00;99.90;;;;;;5024695;28;20194;-65
2023/08/24 04:19:20;;;;;;;5.05;2.92;;;15.80;99.90;;;;;;5027862;28;20628;-65
2023/08/24 04:21:47;;;;;;;4.45;3.25;;;15.90;99.90;;;;;;5015492;28;20198;-65
2023/08/24 04:24:13;;;;;;;4.18;2.70;;;15.90;99.90;;;;;;4982768;28;20235;-65
2023/08/24 04:26:40;;;;;;;3.83;2.38;;;15.70;99.90;;;;;;5016477;28;20954;-65
2023/08/24 04:29:07;;;;;;;2.28;2.08;;;15.80;99.90;;;;;;5021363;28;20197;-65
2023/08/24 04:31:34;;;;;;;3.95;1.92;;;15.80;99.90;;;;;;5011477;28;20221;-65
2023/08/24 04:34:01;;;;;;;3.45;1.35;;;15.80;99.90;;;;;;5024858;28;20202;-65
2023/08/24 04:36:29;;;;;;;1.98;1.45;;;15.90;99.90;;;;;;5019202;28;20229;-65
2023/08/24 04:38:55;;;;;;;3.22;1.60;;;16.90;99.90;;;;;;4983786;28;20210;-65
2023/08/24 04:41:22;;;;;;;2.25;1.40;;;15.50;99.90;;;;;;5021269;28;21256;-65
2023/08/24 04:43:49;;;;;;;6.13;1.58;;;15.50;99.90;;;;;;5024099;28;20721;-65
2023/08/24 04:46:16;;;;;;;6.95;1.50;;;15.60;99.90;;;;;;5008509;28;20205;-65
2023/08/24 04:48:43;;;;;;;2.10;1.88;;;15.70;99.90;;;;;;5023845;28;20247;-64
2023/08/24 04:51:09;;;;;;;3.45;1.95;;;15.70;99.90;;;;;;5010089;28;20305;-65
2023/08/24 04:53:38;;;;;;;4.10;2.83;;;15.50;99.90;;;;;;4974302;28;20414;-65
2023/08/24 04:56:05;;;;;;;3.30;2.65;;;15.80;99.90;;;;;;5006745;28;20232;-65
2023/08/24 04:58:33;;;;;;;4.72;3.13;;;16.10;99.90;;;;;;5021002;28;20224;-65
2023/08/24 05:01:00;;;;;;;5.88;2.85;;;16.00;99.90;;;;;;5010503;28;20198;-65
2023/08/24 05:03:27;;;;;;;2.67;2.47;;;16.00;99.90;;;;;;5026098;28;20208;-65
2023/08/24 05:05:54;;;;;;;7.35;2.85;;;16.00;99.90;;;;;;5023721;28;20193;-65
2023/08/24 05:08:20;;;;;;;6.18;3.40;;;16.00;99.90;;;;;;5026847;28;20204;-65
2023/08/24 05:10:49;;;;;;;3.88;3.40;;;16.00;99.90;;;;;;4987706;28;20205;-65
2023/08/24 05:13:15;;;;;;;6.68;3.38;;;16.00;99.90;;;;;;5026943;28;20193;-65
2023/08/24 05:15:42;;;;;;;6.65;4.13;;;16.10;99.90;;;;;;5022075;28;20221;-65
2023/08/24 05:18:09;;;;;;;9.43;4.47;;;16.20;99.90;;;;;;5017560;28;20237;-65
2023/08/24 05:20:36;;;;;;;7.90;4.88;;;16.20;99.90;;;;;;5014232;28;20229;-64
2023/08/24 05:23:02;;;;;;;4.93;4.20;;;16.30;99.90;;;;;;5026095;28;20205;-65
2023/08/24 05:25:29;;;;;;;7.45;5.05;;;16.30;99.90;;;;;;4977192;28;20213;-65
2023/08/24 05:28:00;;;;;;;6.93;4.60;;;16.40;99.90;;;;;;5020096;28;20315;-64
2023/08/24 05:30:29;;;;;;;5.55;4.32;;;16.70;99.90;;;;;;5000590;28;20230;-65
2023/08/24 05:32:55;;;;;;;6.90;5.35;;;16.40;99.90;;;;;;5008429;28;20225;-65
2023/08/24 05:35:23;;;;;;;8.20;4.97;;;16.50;99.90;;;;;;4995931;28;20422;-65
2023/08/24 05:37:50;;;;;;;6.53;5.07;;;16.50;99.90;;;;;;5025964;28;21212;-65
2023/08/24 05:40:17;;;;;;;5.63;5.07;;;16.60;99.90;;;;;;4985848;28;20699;-66
2023/08/24 05:42:44;;;;;;;8.60;5.13;;;16.60;99.90;;;;;;5031049;28;20208;-65
2023/08/24 05:45:12;;;;;;;10.23;4.75;;;16.70;99.90;;;;;;5027764;28;20219;-65
2023/08/24 05:47:39;;;;;;;8.52;5.20;;;16.60;99.90;;;;;;5021996;28;20209;-66
2023/08/24 05:50:07;;;;;;;7.50;4.85;;;16.80;99.90;;;;;;5020993;28;20198;-65
2023/08/24 05:52:34;;;;;;;10.45;4.90;;;16.70;99.90;;;;;;5026648;28;20197;-65
2023/08/24 05:55:01;;;;;;;6.07;5.03;;;;;;;;;;5016395;28;20194;-65
2023/08/24 05:57:28;;;;;;;6.32;5.35;;;16.70;99.90;;;;;;5009155;28;20212;-65
2023/08/24 05:59:55;;;;;;;7.00;4.45;;;16.70;99.90;;;;;;5031504;28;20201;-65
2023/08/24 06:02:23;;;;;;;8.45;5.05;;;16.80;99.90;;;;;;5026295;28;20310;-65
2023/08/24 06:04:50;;;;;;;7.20;5.30;;;16.70;99.90;;;;;;5003180;28;20233;-66
2023/08/24 06:07:18;;;;;;;7.05;4.63;;;15.40;99.90;;;;;;5029516;28;20670;-65
2023/08/24 06:09:44;;;;;;;7.70;4.55;;;16.60;99.90;;;;;;5028732;28;20201;-65
2023/08/24 06:12:11;;;;;;;5.30;4.22;;;16.90;99.90;;;;;;4985998;28;20214;-65
2023/08/24 06:14:38;;;;;;;6.47;4.40;;;17.00;99.90;;;;;;5024427;28;20293;-65
2023/08/24 06:17:05;;;;;;;4.50;3.92;;;16.90;99.90;;;;;;5034082;28;20233;-65
2023/08/24 06:19:33;;;;;;;6.00;4.28;;;16.90;99.90;;;;;;5021494;28;20197;-65
2023/08/24 06:22:00;;;;;;;6.95;3.80;;;16.90;99.90;;;;;;5033537;28;20307;-65
2023/08/24 06:24:26;;;;;;;8.48;3.63;;;16.90;99.90;;;;;;5029677;28;20197;-65
2023/08/24 06:26:53;;;;;;;6.68;3.67;;;17.00;99.90;;;;;;4995643;28;20220;-65
2023/08/24 06:29:20;;;;;;;5.32;3.60;;;17.00;99.90;;;;;;5030801;28;20213;-66
2023/08/24 06:31:47;;;;;;;9.05;3.83;;;17.10;99.90;;;;;;5028302;28;20204;-65
2023/08/24 06:34:13;;;;;;;4.47;3.70;;;17.20;99.90;;;;;;5018790;28;20695;-65
2023/08/24 06:36:41;;;;;;;4.53;3.33;;;17.30;99.90;;;;;;5027225;28;20232;-65
2023/08/24 06:39:09;;;;;;;3.40;3.10;;;17.30;99.90;;;;;;5029462;28;20717;-66
2023/08/24 06:41:36;;;;;;;8.57;3.35;;;17.30;99.90;;;;;;4996809;28;20229;-66
2023/08/24 06:44:03;;;;;;;4.60;2.90;;;17.50;99.90;;;;;;5031455;28;20220;-65
2023/08/24 06:46:30;;;;;;;5.40;3.38;;;17.50;99.90;;;;;;5027860;28;20213;-66
2023/08/24 06:48:57;;;;;;;7.65;3.47;;;17.50;99.90;;;;;;5031284;28;20292;-65
2023/08/24 06:51:24;;;;;;;5.50;3.35;;;17.60;99.90;;;;;;5021718;28;20584;-65
2023/08/24 06:53:52;;;;;;;3.10;2.83;;;17.60;99.90;;;;;;5031859;28;20197;-65
2023/08/24 06:56:19;;;;;;;5.38;2.78;;;17.60;99.90;;;;;;5030577;28;20233;-65
2023/08/24 06:58:46;;;;;;;5.03;3.42;;;17.70;99.90;;;;;;4993419;28;20209;-66
2023/08/24 07:01:13;;;;;;;8.00;3.00;;;17.80;99.90;;;;;;5028719;28;20251;-65
2023/08/24 07:03:40;;;;;;;8.40;3.65;;;17.80;99.90;;;;;;5029157;28;20189;-66
2023/08/24 07:06:07;;;;;;;5.30;2.78;;;17.90;99.90;;;;;;5018210;28;20204;-65
2023/08/24 07:08:34;;;;;;;6.80;2.80;;;17.80;99.90;;;;;;5036839;28;20279;-66
2023/08/24 07:11:02;;;;;;;3.67;2.75;;;18.00;99.90;;;;;;5033138;28;20214;-65
2023/08/24 07:13:29;;;;;;;5.85;2.47;;;18.00;99.90;;;;;;4999664;28;20220;-66
2023/08/24 07:15:56;;;;;;;5.07;2.40;;;18.20;99.90;;;;;;5032219;28;20879;-65
2023/08/24 07:18:23;;;;;;;4.38;2.00;;;18.10;99.90;;;;;;5032345;28;20200;-66
2023/08/24 07:20:50;;;;;;;6.93;1.95;;;18.20;99.90;;;;;;5024820;28;20217;-66
2023/08/24 07:23:16;;;;;;;3.40;1.52;;;18.20;99.90;;;;;;5029975;28;20939;-65
2023/08/24 07:25:43;;;;;;;6.40;2.33;;;18.20;99.90;;;;;;5025196;28;20589;-66
2023/08/24 07:28:11;;;;;;;4.53;1.85;;;18.20;99.90;;;;;;5029799;28;20288;-65
2023/08/24 07:30:38;;;;;;;5.43;1.92;;;18.20;99.90;;;;;;4984127;28;20206;-65
2023/08/24 07:33:05;;;;;;;4.95;2.00;;;18.30;99.90;;;;;;5028456;28;20792;-65
2023/08/24 07:35:32;;;;;;;4.38;1.92;;;18.40;99.90;;;;;;5015848;28;20225;-66
2023/08/24 07:38:01;;;;;;;4.43;2.03;;;18.40;99.90;;;;;;5030428;28;20222;-65
2023/08/24 07:40:27;;;;;;;2.55;2.30;;;18.40;99.90;;;;;;5032130;28;20237;-66
2023/08/24 07:42:56;;;;;;;4.75;1.90;;;18.40;99.90;;;;;;5032409;28;20215;-66
2023/08/24 07:45:24;;;;;;;3.92;1.98;;;18.40;99.90;;;;;;4994908;28;20228;-66
2023/08/24 07:47:51;;;;;;;5.82;2.17;;;18.50;99.90;;;;;;5030711;28;20197;-66
2023/08/24 07:50:18;;;;;;;4.00;1.90;;;18.50;99.90;;;;;;5021101;28;21073;-65
2023/08/24 07:52:45;;;;;;;5.95;2.25;;;17.50;99.90;;;;;;5032149;28;20631;-65
2023/08/24 07:55:12;;;;;;;6.45;2.28;;;18.70;99.90;;;;;;5028683;28;20746;-66
2023/08/24 07:57:39;;;;;;;3.75;2.10;;;18.70;99.90;;;;;;5034411;28;20225;-65
2023/08/24 08:00:08;;;;;;;2.65;2.00;;;18.70;99.90;;;;;;4992896;28;20805;-66
2023/08/24 08:02:37;;;;;;;4.40;2.20;;;18.70;99.90;;;;;;5032143;28;20288;-65
2023/08/24 08:05:04;;;;;;;2.97;1.70;;;18.80;99.90;;;;;;5026281;28;20264;-65
2023/08/24 08:07:31;;;;;;;3.60;1.88;;;18.70;99.90;;;;;;5021885;28;20232;-65
2023/08/24 08:09:58;;;;;;;4.40;1.88;;;;;;;;;;5031709;28;20326;-65
2023/08/24 08:12:25;;;;;;;3.17;1.40;;;18.90;99.90;;;;;;5017472;28;20731;-65
2023/08/24 08:14:51;;;;;;;2.53;1.88;;;18.90;99.90;;;;;;5022645;28;21046;-65
2023/08/24 08:17:18;;;;;;;2.33;1.60;;;19.00;99.90;;;;;;4986114;28;20613;-65
2023/08/24 08:19:46;;;;;;;3.55;1.52;;;19.00;99.90;;;;;;5024024;28;20205;-65
2023/08/24 08:22:13;;;;;;;7.38;1.80;;;18.30;99.90;;;;;;5012877;28;20205;-65
2023/08/24 08:24:40;;;;;;;4.50;1.80;;;19.10;99.90;;;;;;5032565;28;20202;-65
2023/08/24 08:27:07;;;;;;;2.90;1.48;;;19.10;99.90;;;;;;5017907;28;20729;-65
2023/08/24 08:29:34;;;;;;;5.63;1.90;;;19.10;99.90;;;;;;5031877;28;20204;-66
2023/08/24 08:32:01;;;;;;;3.88;1.30;;;19.20;99.90;;;;;;4993146;28;20212;-66
2023/08/24 08:34:28;;;;;;;5.10;1.98;;;19.20;99.90;;;;;;5028315;28;20201;-65
2023/08/24 08:36:57;;;;;;;4.88;1.60;;;19.30;99.90;;;;;;5023975;28;20245;-65
2023/08/24 08:39:23;;;;;;;4.50;1.73;;;19.30;99.90;;;;;;5029404;28;20213;-65
2023/08/24 08:41:50;;;;;;;13.02;3.50;;;19.30;99.90;;;;;;5030409;28;20207;-66
2023/08/24 08:44:17;;;;;;;4.05;1.55;;;19.30;99.90;;;;;;5027043;28;20229;-65
2023/08/24 08:46:45;;;;;;;4.63;1.52;;;19.40;99.90;;;;;;4993549;28;20224;-65
2023/08/24 08:49:15;;;;;;;3.78;1.63;;;19.40;99.90;;;;;;5030188;28;20219;-65
2023/08/24 08:51:42;;;;;;;3.78;1.80;;;19.40;99.90;;;;;;5030906;28;20259;-65
2023/08/24 08:54:10;;;;;;;5.20;1.83;;;19.40;99.90;;;;;;5015349;28;20706;-65
2023/08/24 08:56:38;;;;;;;7.15;2.05;;;19.40;99.90;;;;;;5026748;28;20229;-66
2023/08/24 08:59:07;;;;;;;7.85;1.95;;;19.50;99.90;;;;;;5027023;28;20225;-66
2023/08/24 09:01:33;;;;;;;7.18;2.25;;;19.50;99.90;;;;;;4990744;28;20339;-65
2023/08/24 09:04:01;;;;;;;7.18;2.40;;;19.60;99.90;;;;;;5026730;28;20243;-66
2023/08/24 09:06:28;;;;;;;7.30;2.20;;;19.60;99.90;;;;;;5026457;28;20228;-65
2023/08/24 09:08:55;;;;;;;4.28;2.20;;;19.70;99.90;;;;;;5024179;28;20221;-66
2023/08/24 09:11:24;;;;;;;9.32;2.45;;;19.70;99.90;;;;;;5024002;28;20224;-66
2023/08/24 09:13:51;;;;;;;8.15;2.50;;;19.80;99.90;;;;;;5029953;28;20197;-66
2023/08/24 09:16:18;;;;;;;5.95;2.00;;;19.80;99.90;;;;;;5026575;28;20236;-66
2023/08/24 09:18:47;;;;;;;4.28;1.95;;;19.90;99.90;;;;;;4977734;28;20824;-67
2023/08/24 09:21:16;;;;;;;6.88;1.88;;;19.90;99.90;;;;;;5021876;28;20221;-66
2023/08/24 09:23:45;;;;;;;3.58;1.83;;;19.90;99.90;;;;;;5023074;28;20211;-65
2023/08/24 09:26:12;;;;;;;5.93;2.05;;;20.00;99.90;;;;;;5020991;28;20206;-65
2023/08/24 09:28:43;;;;;;;8.05;2.90;;;20.00;99.90;;;;;;5032348;28;20205;-66
2023/08/24 09:31:12;;;;;;;6.70;2.13;;;20.20;99.90;;;;;;5029193;28;20279;-65
2023/08/24 09:33:39;;;;;;;4.53;2.20;;;20.10;99.90;;;;;;4994990;28;20213;-66
2023/08/24 09:36:07;;;;;;;8.93;2.83;;;20.30;99.90;;;;;;5024621;28;20319;-66
2023/08/24 09:38:35;;;;;;;7.05;2.58;;;20.20;99.90;;;;;;5020073;28;20222;-66
2023/08/24 09:41:03;;;;;;;4.95;2.67;;;20.30;99.90;;;;;;5011054;28;20205;-65
2023/08/24 09:43:31;;;;;;;7.30;2.58;;;20.40;99.90;;;;;;5028570;28;20198;-66
2023/08/24 09:46:00;;;;;;;5.35;2.58;;;20.40;99.90;;;;;;5016832;28;20213;-66
2023/08/24 09:48:26;;;;;;;8.85;2.50;;;20.50;99.90;;;;;;4991164;28;20225;-65
2023/08/24 09:50:53;;;;;;;3.80;1.92;;;20.60;99.90;;;;;;5018898;28;20221;-65
2023/08/24 09:53:22;;;;;;;12.45;2.85;;;20.60;99.90;;;;;;5017617;28;20223;-65
2023/08/24 09:55:54;;;;;;;5.57;2.65;;;20.80;99.90;;;;;;5020928;28;20244;-66
2023/08/24 09:58:23;;;;;;;6.03;2.60;;;20.50;99.90;;;;;;5025470;28;20233;-66
2023/08/24 10:00:50;;;;;;;7.55;2.92;;;20.70;99.90;;;;;;5028279;28;20193;-65
2023/08/24 10:03:21;;;;;;;7.38;2.42;;;20.90;99.90;;;;;;5027710;28;20197;-66
2023/08/24 10:05:51;;;;;;;10.63;2.83;;;21.20;99.90;;;;;;4994973;28;20951;-66
2023/08/24 10:08:22;;;;;;;5.97;2.90;;;21.10;99.90;;;;;;5028633;28;20201;-66
2023/08/24 10:10:52;;;;;;;4.90;2.80;;;21.10;99.90;;;;;;5030997;28;20205;-66
2023/08/24 10:13:24;;;;;;;4.20;2.90;;;21.10;99.90;;;;;;5029481;28;20197;-66
2023/08/24 10:15:51;;;;;;;5.32;2.58;;;21.20;99.90;;;;;;5028611;28;20205;-66
2023/08/24 10:18:23;;;;;;;5.68;2.72;;;21.20;99.90;;;;;;5029607;28;20232;-66
2023/08/24 10:20:50;;;;;;;7.80;3.13;;;21.20;99.90;;;;;;4993925;28;20419;-66
2023/08/24 10:23:20;;;;;;;8.10;3.15;;;21.30;99.90;;;;;;5027149;28;20201;-66
2023/08/24 10:25:47;;;;;;;9.38;3.65;;;21.30;99.90;;;;;;5025889;28;20230;-66
2023/08/24 10:28:16;;;;;;;8.40;3.63;;;21.30;99.90;;;;;;5028604;28;20205;-66
2023/08/24 10:30:44;;;;;;;6.60;3.70;;;21.30;99.90;;;;;;5025050;28;20873;-66
2023/08/24 10:33:12;;;;;;;11.98;3.67;;;21.40;99.90;;;;;;5027914;28;20812;-66
2023/08/24 10:35:41;;;;;;;6.78;3.70;;;21.40;99.90;;;;;;4996615;28;20205;-66
2023/08/24 10:38:08;;;;;;;12.63;3.70;;;21.50;99.90;;;;;;5027353;28;20229;-66
2023/08/24 10:40:39;;;;;;;9.77;3.83;;;21.40;99.90;;;;;;5035673;28;20259;-66
2023/08/24 10:43:07;;;;;;;11.73;3.92;;;21.50;99.90;;;;;;5009259;28;20296;-65
2023/08/24 10:46:04;;;;;;;9.43;3.33;;;21.50;99.90;;;;;;5019443;28;20205;-65
2023/08/24 10:48:52;;;;;;;12.00;3.40;;;21.50;99.90;;;;;;4926247;28;20602;-65
2023/08/24 10:51:24;;;;;;;6.15;3.17;;;21.70;99.90;;;;;;4973821;28;20248;-66
2023/08/24 10:53:56;;;;;;;6.40;2.83;;;21.70;99.90;;;;;;5017568;28;20272;-66
2023/08/24 10:56:30;;;;;;;6.18;3.00;;;21.70;99.90;;;;;;5012580;28;20228;-66
2023/08/24 10:59:12;;;;;;;6.93;3.08;;;21.80;99.90;;;;;;5027410;28;20295;-66
2023/08/24 11:01:43;;;;;;;7.72;3.05;;;21.80;99.90;;;;;;5017270;28;20213;-66
2023/08/24 11:04:12;;;;;;;13.82;3.67;;;21.80;99.90;;;;;;5006222;28;20599;-66
2023/08/24 11:06:54;;;;;;;6.95;3.15;;;21.80;99.90;;;;;;4991554;28;20201;-66
2023/08/24 11:09:21;;;;;;;4.38;3.30;;;22.00;99.90;;;;;;5025173;28;20212;-66
2023/08/24 11:11:57;;;;;;;7.57;3.00;;;22.00;99.90;;;;;;5008911;28;20354;-66
2023/08/24 11:14:26;;;;;;;7.95;3.38;;;22.00;99.90;;;;;;5026576;28;20701;-66
2023/08/24 11:16:54;;;;;;;4.13;3.00;;;22.00;99.90;;;;;;5022881;28;20226;-66
2023/08/24 11:19:21;;;;;;;6.65;2.42;;;21.50;99.90;;;;;;5014667;28;20314;-66
2023/08/24 11:21:48;;;;;;;6.10;2.97;;;22.00;99.90;;;;;;4993253;28;20212;-66
2023/08/24 11:24:17;;;;;;;9.38;3.53;;;22.10;99.90;;;;;;5024126;28;20288;-66
2023/08/24 11:26:45;;;;;;;7.22;3.58;;;22.20;99.90;;;;;;5032072;28;20193;-66
2023/08/24 11:29:12;;;;;;;6.78;3.55;;;22.20;99.90;;;;;;5018103;28;20202;-66
2023/08/24 11:31:40;;;;;;;3.63;2.97;;;22.20;99.90;;;;;;5030231;28;21208;-65
2023/08/24 11:34:08;;;;;;;6.50;3.53;;;22.30;99.90;;;;;;5023880;28;20944;-66
2023/08/24 11:36:43;;;;;;;4.70;3.63;;;22.10;99.90;;;;;;4988818;28;22206;-66
2023/08/24 11:39:19;;;;;;;5.43;3.58;;;22.30;99.90;;;;;;5025157;28;20699;-66
2023/08/24 11:41:47;;;;;;;8.15;3.58;;;22.40;99.90;;;;;;5030457;28;20572;-66
2023/08/24 11:44:14;;;;;;;7.25;3.45;;;22.40;99.90;;;;;;5016105;28;20324;-66
2023/08/24 11:46:40;;;;;;;5.03;2.88;;;22.30;99.90;;;;;;5015744;28;20209;-66
2023/08/24 11:49:07;;;;;;;5.20;3.22;;;22.40;99.90;;;;;;5027268;28;20581;-66
2023/08/24 11:51:35;;;;;;;7.80;3.42;;;22.40;99.90;;;;;;4983742;28;20705;-66
2023/08/24 11:54:02;;;;;;;6.78;3.90;;;22.50;99.90;;;;;;5028699;28;20197;-66
2023/08/24 11:56:30;;;;;;;7.22;3.03;;;22.40;99.90;;;;;;5023332;28;20202;-66
2023/08/24 11:58:56;;;;;;;4.80;3.10;;;22.50;99.90;;;;;;5016037;28;20217;-66
2023/08/24 12:01:24;;;;;;;6.47;2.60;;;22.50;99.90;;;;;;5024710;28;20201;-66
2023/08/24 12:03:51;;;;;;;4.00;2.83;;;22.50;99.90;;;;;;5027673;28;20233;-66
2023/08/24 12:06:18;;;;;;;9.45;3.33;;;22.60;99.90;;;;;;5017599;28;20205;-67
2023/08/24 12:08:47;;;;;;;6.60;3.67;;;22.60;99.90;;;;;;4982268;28;20217;-66
2023/08/24 12:11:15;;;;;;;7.30;3.53;;;22.80;99.90;;;;;;5025651;28;20197;-66
2023/08/24 12:13:47;;;;;;;6.28;3.55;;;22.80;99.90;;;;;;5025836;28;20208;-66
2023/08/24 12:16:16;;;;;;;5.38;2.72;;;22.80;99.90;;;;;;5016096;28;20217;-66
2023/08/24 12:18:50;;;;;;;2.72;2.50;;;22.80;99.90;;;;;;5029062;28;20228;-66
2023/08/24 12:21:17;;;;;;;4.72;3.47;;;22.70;99.90;;;;;;5019528;28;20196;-66
2023/08/24 12:23:44;;;;;;;6.63;3.50;;;22.80;99.90;;;;;;4994678;28;20201;-66
2023/08/24 12:26:18;;;;;;;5.20;2.92;;;22.70;99.90;;;;;;5016186;28;20694;-66
2023/08/24 12:28:52;;;;;;;9.77;3.33;;;22.70;99.90;;;;;;5032310;28;20228;-66
2023/08/24 12:31:19;;;;;;;8.85;3.30;;;22.80;99.90;;;;;;5016194;28;20213;-66
2023/08/24 12:33:46;;;;;;;6.75;2.92;;;22.80;99.90;;;;;;5030372;28;20270;-66
2023/08/24 12:36:13;;;;;;;6.80;2.88;;;22.70;99.90;;;;;;5011241;28;20221;-66
2023/08/24 12:38:42;;;;;;;9.98;3.75;;;22.70;99.90;;;;;;4972790;28;20232;-66
2023/08/24 12:41:09;;;;;;;6.65;3.53;;;22.70;99.90;;;;;;5017949;28;20229;-66
2023/08/24 12:43:36;;;;;;;6.93;2.70;;;22.70;99.90;;;;;;5023389;28;20197;-66
2023/08/24 12:46:04;;;;;;;3.65;2.80;;;22.70;99.90;;;;;;5017361;28;20221;-66
2023/08/24 12:48:31;;;;;;;5.70;2.65;;;22.60;99.90;;;;;;5016027;28;20613;-65
2023/08/24 12:50:58;;;;;;;6.35;3.17;;;22.70;99.90;;;;;;5018740;28;20229;-65
2023/08/24 12:53:24;;;;;;;8.48;3.10;;;22.60;99.90;;;;;;5015218;28;20233;-66